EWG7VK ESSA-EDDH
Flight info
| Callsign | EWG7VK |
|---|---|
| Flight time | 1h 25m |
| Altitude | 34000 |
| Route | NOSLI N850 ABAMA DCT GIMRU T503 MICOS N850 BOGMU BOGMU3P |
| Aircraft | A320/M-SDE3FGHIRWY/LB1 |
Departure
| Time | 2026-04-23 18:26 |
|---|---|
| Airport | Stockholm-Arlanda Airport (ESSA) |
Arrival
| Time | 2026-04-23 19:52 |
|---|---|
| Airport | Hamburg Helmut Schmidt Airport (EDDH) |
| Time | Latitude | Longitude | Altitude | Speed | Heading |
|---|---|---|---|---|---|
| 2026-04-23 18:01 | 59.64778 | 17.92400 | 138 ft | 0 kts | 40° |
| 2026-04-23 18:14 | 59.64776 | 17.92396 | 138 ft | 2 kts | 40° |
| 2026-04-23 18:14 | 59.64764 | 17.92378 | 138 ft | 2 kts | 34° |
| 2026-04-23 18:14 | 59.64750 | 17.92361 | 137 ft | 2 kts | 24° |
| 2026-04-23 18:14 | 59.64735 | 17.92350 | 137 ft | 2 kts | 2° |
| 2026-04-23 18:15 | 59.64719 | 17.92355 | 137 ft | 2 kts | 317° |
| 2026-04-23 18:15 | 59.64710 | 17.92377 | 137 ft | 1 kts | 291° |
| 2026-04-23 18:15 | 59.64708 | 17.92384 | 137 ft | 0 kts | 287° |
| 2026-04-23 18:17 | 59.64708 | 17.92383 | 137 ft | 0 kts | 287° |
| 2026-04-23 18:18 | 59.64714 | 17.92345 | 137 ft | 5 kts | 287° |
| 2026-04-23 18:18 | 59.64726 | 17.92261 | 137 ft | 8 kts | 286° |
| 2026-04-23 18:18 | 59.64745 | 17.92135 | 138 ft | 12 kts | 291° |
| 2026-04-23 18:18 | 59.64829 | 17.92077 | 138 ft | 16 kts | 3° |
| 2026-04-23 18:19 | 59.64946 | 17.92127 | 138 ft | 18 kts | 9° |
| 2026-04-23 18:19 | 59.65069 | 17.92171 | 138 ft | 18 kts | 12° |
| 2026-04-23 18:19 | 59.65205 | 17.92220 | 138 ft | 22 kts | 11° |
| 2026-04-23 18:19 | 59.65366 | 17.92290 | 138 ft | 25 kts | 10° |
| 2026-04-23 18:20 | 59.65495 | 17.92483 | 138 ft | 19 kts | 51° |
| 2026-04-23 18:20 | 59.65543 | 17.92693 | 138 ft | 16 kts | 77° |
| 2026-04-23 18:20 | 59.65565 | 17.92896 | 138 ft | 14 kts | 77° |
| 2026-04-23 18:20 | 59.65588 | 17.93075 | 138 ft | 13 kts | 75° |
| 2026-04-23 18:21 | 59.65609 | 17.93231 | 138 ft | 11 kts | 75° |
| 2026-04-23 18:21 | 59.65648 | 17.93341 | 138 ft | 9 kts | 45° |
| 2026-04-23 18:21 | 59.65673 | 17.93392 | 138 ft | 0 kts | 46° |
| 2026-04-23 18:22 | 59.65674 | 17.93393 | 138 ft | 1 kts | 46° |
| 2026-04-23 18:22 | 59.65680 | 17.93405 | 138 ft | 1 kts | 46° |
| 2026-04-23 18:22 | 59.65681 | 17.93408 | 138 ft | 0 kts | 46° |
| 2026-04-23 18:22 | 59.65684 | 17.93414 | 138 ft | 2 kts | 46° |
| 2026-04-23 18:23 | 59.65704 | 17.93450 | 138 ft | 4 kts | 43° |
| 2026-04-23 18:23 | 59.65752 | 17.93550 | 138 ft | 5 kts | 45° |
| 2026-04-23 18:24 | 59.65787 | 17.93621 | 138 ft | 2 kts | 45° |
| 2026-04-23 18:24 | 59.65802 | 17.93650 | 138 ft | 6 kts | 45° |
| 2026-04-23 18:24 | 59.65854 | 17.93695 | 138 ft | 7 kts | 51° |
| 2026-04-23 18:25 | 59.65857 | 17.93722 | 138 ft | 0 kts | 79° |
| 2026-04-23 18:25 | 59.65858 | 17.93723 | 138 ft | 3 kts | 78° |
| 2026-04-23 18:25 | 59.65923 | 17.94240 | 140 ft | 78 kts | 75° |
| 2026-04-23 18:26 | 59.66110 | 17.95699 | 139 ft | 138 kts | 75° |
| 2026-04-23 18:26 | 59.66380 | 17.97782 | 434 ft | 160 kts | 75° |
| 2026-04-23 18:26 | 59.66634 | 17.99882 | 1200 ft | 154 kts | 73° |
| 2026-04-23 18:26 | 59.66886 | 18.02032 | 1669 ft | 171 kts | 72° |
| 2026-04-23 18:27 | 59.67227 | 18.04397 | 1935 ft | 190 kts | 58° |
| 2026-04-23 18:27 | 59.68125 | 18.06312 | 2371 ft | 193 kts | 24° |
| 2026-04-23 18:27 | 59.69397 | 18.06882 | 3023 ft | 190 kts | 354° |
| 2026-04-23 18:27 | 59.70615 | 18.05931 | 3664 ft | 193 kts | 322° |
| 2026-04-23 18:28 | 59.71351 | 18.03702 | 4331 ft | 202 kts | 289° |
| 2026-04-23 18:28 | 59.71377 | 18.00853 | 4968 ft | 210 kts | 271° |
| 2026-04-23 18:28 | 59.71219 | 17.97987 | 5798 ft | 209 kts | 270° |
| 2026-04-23 18:28 | 59.71046 | 17.95135 | 6586 ft | 209 kts | 270° |
| 2026-04-23 18:29 | 59.70785 | 17.92254 | 7197 ft | 220 kts | 257° |
| 2026-04-23 18:29 | 59.70194 | 17.89298 | 7487 ft | 245 kts | 256° |
| 2026-04-23 18:29 | 59.69627 | 17.85954 | 7820 ft | 267 kts | 258° |
| 2026-04-23 18:29 | 59.69052 | 17.82369 | 8451 ft | 277 kts | 258° |
| 2026-04-23 18:30 | 59.68462 | 17.78681 | 9241 ft | 284 kts | 258° |
| 2026-04-23 18:30 | 59.67859 | 17.74918 | 9970 ft | 290 kts | 258° |
| 2026-04-23 18:30 | 59.67229 | 17.70992 | 10324 ft | 311 kts | 258° |
| 2026-04-23 18:30 | 59.66558 | 17.66763 | 10572 ft | 332 kts | 258° |
| 2026-04-23 18:31 | 59.65789 | 17.62391 | 11149 ft | 344 kts | 249° |
| 2026-04-23 18:31 | 59.64362 | 17.58482 | 11820 ft | 360 kts | 227° |
| 2026-04-23 18:31 | 59.62217 | 17.55781 | 12506 ft | 374 kts | 204° |
| 2026-04-23 18:31 | 59.59712 | 17.54241 | 13180 ft | 380 kts | 199° |
| 2026-04-23 18:32 | 59.57150 | 17.52814 | 13827 ft | 385 kts | 198° |
| 2026-04-23 18:32 | 59.54552 | 17.51413 | 14423 ft | 389 kts | 198° |
| 2026-04-23 18:32 | 59.51929 | 17.50016 | 14975 ft | 394 kts | 198° |
| 2026-04-23 18:32 | 59.49268 | 17.48595 | 15527 ft | 399 kts | 198° |
| 2026-04-23 18:33 | 59.46613 | 17.47161 | 16069 ft | 403 kts | 198° |
| 2026-04-23 18:33 | 59.43892 | 17.45675 | 16627 ft | 408 kts | 198° |
| 2026-04-23 18:33 | 59.41138 | 17.44164 | 17165 ft | 413 kts | 198° |
| 2026-04-23 18:33 | 59.38353 | 17.42632 | 17708 ft | 418 kts | 198° |
| 2026-04-23 18:34 | 59.35533 | 17.41087 | 18236 ft | 423 kts | 198° |
| 2026-04-23 18:34 | 59.32683 | 17.39525 | 18713 ft | 427 kts | 198° |
| 2026-04-23 18:34 | 59.29805 | 17.37947 | 19188 ft | 431 kts | 198° |
| 2026-04-23 18:34 | 59.26904 | 17.36363 | 19689 ft | 434 kts | 198° |
| 2026-04-23 18:35 | 59.23986 | 17.34786 | 20183 ft | 437 kts | 198° |
| 2026-04-23 18:35 | 59.21046 | 17.33208 | 20668 ft | 440 kts | 198° |
| 2026-04-23 18:35 | 59.18122 | 17.31638 | 21141 ft | 443 kts | 198° |
| 2026-04-23 18:35 | 59.15139 | 17.30030 | 21612 ft | 446 kts | 198° |
| 2026-04-23 18:36 | 59.12142 | 17.28415 | 22081 ft | 449 kts | 198° |
| 2026-04-23 18:36 | 59.09165 | 17.26533 | 22534 ft | 450 kts | 206° |
| 2026-04-23 18:36 | 59.06380 | 17.23810 | 22986 ft | 447 kts | 216° |
| 2026-04-23 18:36 | 59.03863 | 17.20293 | 23432 ft | 444 kts | 225° |
| 2026-04-23 18:37 | 59.01486 | 17.16425 | 23820 ft | 446 kts | 225° |
| 2026-04-23 18:37 | 58.99097 | 17.12561 | 24221 ft | 448 kts | 225° |
| 2026-04-23 18:37 | 58.96698 | 17.08705 | 24609 ft | 450 kts | 225° |
| 2026-04-23 18:37 | 58.94270 | 17.04818 | 24979 ft | 453 kts | 225° |
| 2026-04-23 18:38 | 58.91840 | 17.00931 | 25350 ft | 455 kts | 225° |
| 2026-04-23 18:38 | 58.89428 | 16.97082 | 25713 ft | 456 kts | 224° |
| 2026-04-23 18:38 | 58.86974 | 16.93171 | 26080 ft | 458 kts | 225° |
| 2026-04-23 18:38 | 58.84511 | 16.89250 | 26441 ft | 460 kts | 225° |
| 2026-04-23 18:39 | 58.82038 | 16.85317 | 26818 ft | 462 kts | 224° |
| 2026-04-23 18:39 | 58.79544 | 16.81361 | 27176 ft | 464 kts | 224° |
| 2026-04-23 18:39 | 58.77044 | 16.77401 | 27529 ft | 466 kts | 224° |
| 2026-04-23 18:39 | 58.74539 | 16.73442 | 27878 ft | 467 kts | 224° |
| 2026-04-23 18:40 | 58.72017 | 16.69462 | 28001 ft | 467 kts | 224° |
| 2026-04-23 18:40 | 58.66990 | 16.61544 | 28008 ft | 467 kts | 224° |
| 2026-04-23 18:41 | 58.61960 | 16.53661 | 28005 ft | 467 kts | 224° |
| 2026-04-23 18:41 | 58.56961 | 16.45860 | 28001 ft | 465 kts | 224° |
| 2026-04-23 18:41 | 58.54458 | 16.41960 | 27987 ft | 463 kts | 224° |
| 2026-04-23 18:42 | 58.51952 | 16.38065 | 28141 ft | 465 kts | 223° |
| 2026-04-23 18:42 | 58.49433 | 16.34157 | 28493 ft | 467 kts | 223° |
| 2026-04-23 18:42 | 58.46905 | 16.30237 | 28837 ft | 469 kts | 223° |
| 2026-04-23 18:42 | 58.44357 | 16.26296 | 29172 ft | 472 kts | 223° |
| 2026-04-23 18:43 | 58.41799 | 16.22349 | 29484 ft | 473 kts | 223° |
| 2026-04-23 18:43 | 58.39234 | 16.18404 | 29797 ft | 475 kts | 223° |
| 2026-04-23 18:43 | 58.36654 | 16.14444 | 30092 ft | 477 kts | 223° |
| 2026-04-23 18:43 | 58.34062 | 16.10476 | 30368 ft | 479 kts | 223° |
| 2026-04-23 18:44 | 58.31492 | 16.06552 | 30599 ft | 481 kts | 223° |
| 2026-04-23 18:44 | 58.28878 | 16.02565 | 30797 ft | 483 kts | 224° |
| 2026-04-23 18:44 | 58.26247 | 15.98553 | 31016 ft | 486 kts | 224° |
| 2026-04-23 18:44 | 58.23614 | 15.94547 | 31281 ft | 487 kts | 224° |
| 2026-04-23 18:45 | 58.20968 | 15.90533 | 31628 ft | 486 kts | 224° |
| 2026-04-23 18:45 | 58.18336 | 15.86547 | 31958 ft | 485 kts | 224° |
| 2026-04-23 18:45 | 58.15701 | 15.82563 | 32295 ft | 484 kts | 224° |
| 2026-04-23 18:45 | 58.13066 | 15.78584 | 32629 ft | 483 kts | 224° |
| 2026-04-23 18:46 | 58.10440 | 15.74626 | 32960 ft | 483 kts | 224° |
| 2026-04-23 18:46 | 58.07850 | 15.70732 | 33294 ft | 482 kts | 224° |
| 2026-04-23 18:46 | 58.05228 | 15.66793 | 33594 ft | 481 kts | 224° |
| 2026-04-23 18:46 | 58.02612 | 15.62866 | 33938 ft | 480 kts | 224° |
| 2026-04-23 18:47 | 57.99994 | 15.58944 | 34250 ft | 479 kts | 224° |
| 2026-04-23 18:47 | 57.97371 | 15.55073 | 34540 ft | 479 kts | 223° |
| 2026-04-23 18:47 | 57.94709 | 15.51286 | 34824 ft | 479 kts | 222° |
| 2026-04-23 18:47 | 57.92025 | 15.47584 | 35101 ft | 479 kts | 222° |
| 2026-04-23 18:48 | 57.89321 | 15.43917 | 35383 ft | 478 kts | 221° |
| 2026-04-23 18:48 | 57.86623 | 15.40275 | 35647 ft | 477 kts | 221° |
| 2026-04-23 18:48 | 57.83935 | 15.36629 | 35868 ft | 476 kts | 221° |
| 2026-04-23 18:48 | 57.81299 | 15.33031 | 36041 ft | 473 kts | 222° |
| 2026-04-23 18:49 | 57.78653 | 15.29405 | 36077 ft | 469 kts | 222° |
| 2026-04-23 18:49 | 57.73412 | 15.22215 | 36073 ft | 467 kts | 222° |
| 2026-04-23 18:50 | 57.69054 | 15.16260 | 36075 ft | 466 kts | 222° |
| 2026-04-23 18:50 | 57.62927 | 15.07929 | 36081 ft | 466 kts | 222° |
| 2026-04-23 18:51 | 57.57705 | 15.00869 | 36057 ft | 467 kts | 221° |
| 2026-04-23 18:51 | 57.52451 | 14.93791 | 36077 ft | 466 kts | 221° |
| 2026-04-23 18:52 | 57.47201 | 14.86734 | 36088 ft | 465 kts | 221° |
| 2026-04-23 18:52 | 57.41955 | 14.79709 | 36088 ft | 465 kts | 221° |
| 2026-04-23 18:53 | 57.36698 | 14.72708 | 36089 ft | 465 kts | 221° |
| 2026-04-23 18:53 | 57.31441 | 14.65734 | 36064 ft | 465 kts | 221° |
| 2026-04-23 18:54 | 57.26219 | 14.58823 | 36064 ft | 465 kts | 221° |
| 2026-04-23 18:54 | 57.20955 | 14.51880 | 36064 ft | 465 kts | 221° |
| 2026-04-23 18:55 | 57.15689 | 14.44948 | 36066 ft | 465 kts | 221° |
| 2026-04-23 18:55 | 57.10416 | 14.38031 | 36071 ft | 465 kts | 221° |
| 2026-04-23 18:56 | 57.06042 | 14.32320 | 36081 ft | 465 kts | 221° |
| 2026-04-23 18:56 | 56.99914 | 14.24348 | 36073 ft | 463 kts | 221° |
| 2026-04-23 18:57 | 56.94659 | 14.17533 | 36094 ft | 462 kts | 221° |
| 2026-04-23 18:57 | 56.89408 | 14.10752 | 36105 ft | 461 kts | 221° |
| 2026-04-23 18:58 | 56.84162 | 14.03999 | 36100 ft | 461 kts | 220° |
| 2026-04-23 18:58 | 56.78952 | 13.97332 | 36111 ft | 460 kts | 220° |
| 2026-04-23 18:59 | 56.73707 | 13.90643 | 36123 ft | 459 kts | 220° |
| 2026-04-23 18:59 | 56.68474 | 13.83990 | 36124 ft | 459 kts | 220° |
| 2026-04-23 19:00 | 56.63240 | 13.77345 | 36120 ft | 459 kts | 220° |
| 2026-04-23 19:00 | 56.58005 | 13.70715 | 36119 ft | 459 kts | 220° |
| 2026-04-23 19:01 | 56.52804 | 13.64146 | 36112 ft | 459 kts | 220° |
| 2026-04-23 19:01 | 56.47560 | 13.57566 | 36116 ft | 459 kts | 220° |
| 2026-04-23 19:02 | 56.43200 | 13.52114 | 36114 ft | 459 kts | 220° |
| 2026-04-23 19:02 | 56.37067 | 13.44457 | 36107 ft | 459 kts | 220° |
| 2026-04-23 19:03 | 56.31809 | 13.37922 | 36117 ft | 459 kts | 220° |
| 2026-04-23 19:03 | 56.26573 | 13.31442 | 36116 ft | 460 kts | 220° |
| 2026-04-23 19:04 | 56.21297 | 13.24915 | 36103 ft | 460 kts | 220° |
| 2026-04-23 19:04 | 56.16022 | 13.18427 | 36096 ft | 459 kts | 219° |
| 2026-04-23 19:05 | 56.10749 | 13.11958 | 36126 ft | 459 kts | 219° |
| 2026-04-23 19:05 | 56.05509 | 13.05549 | 36128 ft | 459 kts | 219° |
| 2026-04-23 19:06 | 56.00229 | 12.99121 | 36135 ft | 459 kts | 219° |
| 2026-04-23 19:06 | 55.94949 | 12.92712 | 36138 ft | 459 kts | 219° |
| 2026-04-23 19:07 | 55.89663 | 12.86310 | 36120 ft | 459 kts | 219° |
| 2026-04-23 19:07 | 55.84369 | 12.79935 | 36120 ft | 459 kts | 218° |
| 2026-04-23 19:08 | 55.79109 | 12.73618 | 36118 ft | 460 kts | 219° |
| 2026-04-23 19:08 | 55.73810 | 12.67259 | 36116 ft | 460 kts | 219° |
| 2026-04-23 19:09 | 55.68511 | 12.60924 | 36116 ft | 460 kts | 218° |
| 2026-04-23 19:09 | 55.63199 | 12.54613 | 36101 ft | 460 kts | 218° |
| 2026-04-23 19:10 | 55.57924 | 12.48354 | 36104 ft | 460 kts | 218° |
| 2026-04-23 19:10 | 55.52604 | 12.42060 | 36128 ft | 460 kts | 218° |
| 2026-04-23 19:11 | 55.47280 | 12.35792 | 36130 ft | 460 kts | 218° |
| 2026-04-23 19:11 | 55.41962 | 12.29539 | 36132 ft | 460 kts | 218° |
| 2026-04-23 19:12 | 55.37538 | 12.24359 | 36132 ft | 459 kts | 217° |
| 2026-04-23 19:12 | 55.31351 | 12.17159 | 36149 ft | 458 kts | 217° |
| 2026-04-23 19:13 | 55.26042 | 12.10981 | 36155 ft | 457 kts | 217° |
| 2026-04-23 19:13 | 55.20737 | 12.04828 | 35999 ft | 457 kts | 217° |
| 2026-04-23 19:13 | 55.18087 | 12.01765 | 35730 ft | 457 kts | 217° |
| 2026-04-23 19:14 | 55.15430 | 11.98697 | 35480 ft | 458 kts | 217° |
| 2026-04-23 19:14 | 55.12800 | 11.95661 | 34751 ft | 462 kts | 217° |
| 2026-04-23 19:14 | 55.10123 | 11.92575 | 34196 ft | 461 kts | 217° |
| 2026-04-23 19:14 | 55.07445 | 11.89504 | 33579 ft | 458 kts | 217° |
| 2026-04-23 19:15 | 55.04791 | 11.86468 | 33020 ft | 454 kts | 217° |
| 2026-04-23 19:15 | 55.02162 | 11.83466 | 32449 ft | 451 kts | 217° |
| 2026-04-23 19:15 | 54.99541 | 11.80475 | 31895 ft | 448 kts | 217° |
| 2026-04-23 19:15 | 54.96942 | 11.77513 | 31343 ft | 446 kts | 217° |
| 2026-04-23 19:16 | 54.94356 | 11.74566 | 30786 ft | 443 kts | 217° |
| 2026-04-23 19:16 | 54.91780 | 11.71634 | 30239 ft | 441 kts | 217° |
| 2026-04-23 19:16 | 54.89227 | 11.68726 | 29650 ft | 438 kts | 217° |
| 2026-04-23 19:17 | 54.84181 | 11.63001 | 28627 ft | 429 kts | 217° |
| 2026-04-23 19:17 | 54.81728 | 11.60231 | 28112 ft | 425 kts | 217° |
| 2026-04-23 19:17 | 54.79264 | 11.57450 | 27635 ft | 420 kts | 217° |
| 2026-04-23 19:17 | 54.76825 | 11.54695 | 27167 ft | 416 kts | 217° |
| 2026-04-23 19:18 | 54.74408 | 11.51972 | 26699 ft | 412 kts | 216° |
| 2026-04-23 19:18 | 54.71856 | 11.49724 | 26280 ft | 411 kts | 206° |
| 2026-04-23 19:18 | 54.69219 | 11.47871 | 25825 ft | 408 kts | 205° |
| 2026-04-23 19:18 | 54.66594 | 11.46066 | 25368 ft | 405 kts | 205° |
| 2026-04-23 19:19 | 54.61392 | 11.42517 | 24467 ft | 400 kts | 205° |
| 2026-04-23 19:19 | 54.58808 | 11.40765 | 24019 ft | 397 kts | 205° |
| 2026-04-23 19:20 | 54.53729 | 11.37336 | 23061 ft | 392 kts | 205° |
| 2026-04-23 19:20 | 54.51200 | 11.35626 | 22590 ft | 390 kts | 205° |
| 2026-04-23 19:20 | 54.48692 | 11.33927 | 22294 ft | 383 kts | 205° |
| 2026-04-23 19:20 | 54.46246 | 11.32276 | 22071 ft | 374 kts | 205° |
| 2026-04-23 19:21 | 54.43842 | 11.30663 | 21728 ft | 369 kts | 205° |
| 2026-04-23 19:21 | 54.39099 | 11.27475 | 20950 ft | 364 kts | 205° |
| 2026-04-23 19:21 | 54.36754 | 11.25885 | 20567 ft | 360 kts | 205° |
| 2026-04-23 19:22 | 54.34439 | 11.24298 | 20201 ft | 358 kts | 205° |
| 2026-04-23 19:22 | 54.32132 | 11.22709 | 19828 ft | 356 kts | 205° |
| 2026-04-23 19:22 | 54.27603 | 11.19570 | 19107 ft | 352 kts | 205° |
| 2026-04-23 19:23 | 54.25343 | 11.17996 | 18760 ft | 350 kts | 205° |
| 2026-04-23 19:23 | 54.23093 | 11.16424 | 18398 ft | 348 kts | 205° |
| 2026-04-23 19:23 | 54.20859 | 11.14859 | 18032 ft | 345 kts | 205° |
| 2026-04-23 19:24 | 54.16435 | 11.11766 | 17292 ft | 342 kts | 205° |
| 2026-04-23 19:24 | 54.14238 | 11.10236 | 16934 ft | 340 kts | 205° |
| 2026-04-23 19:24 | 54.09902 | 11.07223 | 16240 ft | 338 kts | 205° |
| 2026-04-23 19:25 | 54.05574 | 11.04228 | 15566 ft | 335 kts | 205° |
| 2026-04-23 19:25 | 54.01261 | 11.01253 | 14915 ft | 333 kts | 205° |
| 2026-04-23 19:26 | 53.96988 | 10.98313 | 14306 ft | 330 kts | 205° |
| 2026-04-23 19:26 | 53.94869 | 10.96857 | 13998 ft | 329 kts | 205° |
| 2026-04-23 19:27 | 53.90644 | 10.93965 | 13310 ft | 326 kts | 205° |
| 2026-04-23 19:27 | 53.84390 | 10.89738 | 12494 ft | 322 kts | 205° |
| 2026-04-23 19:28 | 53.80238 | 10.86956 | 12202 ft | 320 kts | 205° |
| 2026-04-23 19:28 | 53.76087 | 10.84185 | 12218 ft | 321 kts | 205° |
| 2026-04-23 19:29 | 53.74012 | 10.82797 | 12214 ft | 321 kts | 205° |
| 2026-04-23 19:29 | 53.69877 | 10.80012 | 11834 ft | 319 kts | 205° |
| 2026-04-23 19:30 | 53.65771 | 10.77266 | 11365 ft | 316 kts | 205° |
| 2026-04-23 19:30 | 53.63750 | 10.75927 | 11226 ft | 316 kts | 205° |
| 2026-04-23 19:30 | 53.59663 | 10.73221 | 11222 ft | 316 kts | 205° |
| 2026-04-23 19:31 | 53.57618 | 10.71869 | 11227 ft | 316 kts | 205° |
| 2026-04-23 19:31 | 53.55570 | 10.70513 | 11224 ft | 316 kts | 204° |
| 2026-04-23 19:31 | 53.53527 | 10.69161 | 11225 ft | 316 kts | 205° |
| 2026-04-23 19:31 | 53.51478 | 10.67805 | 11221 ft | 316 kts | 204° |
| 2026-04-23 19:32 | 53.49437 | 10.66448 | 11226 ft | 316 kts | 204° |
| 2026-04-23 19:32 | 53.47398 | 10.65086 | 11227 ft | 316 kts | 204° |
| 2026-04-23 19:32 | 53.45357 | 10.63722 | 11234 ft | 316 kts | 204° |
| 2026-04-23 19:32 | 53.43342 | 10.62377 | 11234 ft | 316 kts | 204° |
| 2026-04-23 19:33 | 53.41274 | 10.60999 | 11233 ft | 316 kts | 204° |
| 2026-04-23 19:33 | 53.39260 | 10.59657 | 11234 ft | 316 kts | 205° |
| 2026-04-23 19:33 | 53.35181 | 10.56943 | 11236 ft | 316 kts | 204° |
| 2026-04-23 19:34 | 53.33136 | 10.55584 | 11235 ft | 316 kts | 204° |
| 2026-04-23 19:34 | 53.31093 | 10.54225 | 11237 ft | 316 kts | 205° |
| 2026-04-23 19:34 | 53.27004 | 10.51517 | 11229 ft | 316 kts | 204° |
| 2026-04-23 19:35 | 53.24988 | 10.50079 | 11234 ft | 314 kts | 213° |
| 2026-04-23 19:35 | 53.23374 | 10.47742 | 11247 ft | 304 kts | 239° |
| 2026-04-23 19:35 | 53.22441 | 10.44689 | 11249 ft | 298 kts | 253° |
| 2026-04-23 19:35 | 53.21705 | 10.41460 | 11248 ft | 298 kts | 255° |
| 2026-04-23 19:36 | 53.21304 | 10.38134 | 11249 ft | 291 kts | 272° |
| 2026-04-23 19:36 | 53.21259 | 10.34766 | 11248 ft | 290 kts | 274° |
| 2026-04-23 19:36 | 53.21253 | 10.31406 | 11247 ft | 289 kts | 274° |
| 2026-04-23 19:36 | 53.21252 | 10.28046 | 11247 ft | 289 kts | 275° |
| 2026-04-23 19:37 | 53.21252 | 10.24692 | 11241 ft | 290 kts | 274° |
| 2026-04-23 19:37 | 53.21255 | 10.21329 | 11251 ft | 290 kts | 274° |
| 2026-04-23 19:37 | 53.21347 | 10.17987 | 11248 ft | 286 kts | 285° |
| 2026-04-23 19:37 | 53.22035 | 10.14982 | 11253 ft | 279 kts | 306° |
| 2026-04-23 19:38 | 53.23335 | 10.12649 | 11257 ft | 274 kts | 327° |
| 2026-04-23 19:38 | 53.25046 | 10.11312 | 11254 ft | 273 kts | 347° |
| 2026-04-23 19:38 | 53.26930 | 10.11112 | 11149 ft | 274 kts | 5° |
| 2026-04-23 19:38 | 53.28820 | 10.11507 | 10908 ft | 273 kts | 6° |
| 2026-04-23 19:39 | 53.30699 | 10.11913 | 10664 ft | 272 kts | 6° |
| 2026-04-23 19:39 | 53.32565 | 10.12316 | 10433 ft | 270 kts | 5° |
| 2026-04-23 19:39 | 53.34427 | 10.12714 | 10200 ft | 268 kts | 5° |
| 2026-04-23 19:39 | 53.36275 | 10.13105 | 10073 ft | 268 kts | 5° |
| 2026-04-23 19:40 | 53.38126 | 10.13497 | 9938 ft | 267 kts | 5° |
| 2026-04-23 19:40 | 53.39967 | 10.13769 | 9804 ft | 265 kts | 358° |
| 2026-04-23 19:40 | 53.41801 | 10.13574 | 9543 ft | 264 kts | 354° |
| 2026-04-23 19:40 | 53.43601 | 10.13342 | 9286 ft | 262 kts | 354° |
| 2026-04-23 19:41 | 53.45418 | 10.13111 | 9042 ft | 261 kts | 354° |
| 2026-04-23 19:41 | 53.47221 | 10.12882 | 8774 ft | 259 kts | 354° |
| 2026-04-23 19:41 | 53.48411 | 10.12730 | 8602 ft | 259 kts | 354° |
| 2026-04-23 19:41 | 53.50805 | 10.12422 | 8265 ft | 257 kts | 354° |
| 2026-04-23 19:42 | 53.52585 | 10.12191 | 8013 ft | 256 kts | 354° |
| 2026-04-23 19:42 | 53.54352 | 10.11964 | 7765 ft | 254 kts | 354° |
| 2026-04-23 19:42 | 53.56113 | 10.11741 | 7519 ft | 253 kts | 355° |
| 2026-04-23 19:42 | 53.57852 | 10.12083 | 7314 ft | 255 kts | 15° |
| 2026-04-23 19:43 | 53.58910 | 10.12964 | 7235 ft | 260 kts | 30° |
| 2026-04-23 19:43 | 53.60598 | 10.15900 | 7136 ft | 265 kts | 44° |
| 2026-04-23 19:43 | 53.61780 | 10.18281 | 6734 ft | 264 kts | 44° |
| 2026-04-23 19:43 | 53.62955 | 10.20654 | 6345 ft | 263 kts | 44° |
| 2026-04-23 19:44 | 53.64125 | 10.23021 | 5935 ft | 262 kts | 44° |
| 2026-04-23 19:44 | 53.65284 | 10.25368 | 5563 ft | 260 kts | 44° |
| 2026-04-23 19:44 | 53.66043 | 10.26905 | 5398 ft | 256 kts | 44° |
| 2026-04-23 19:44 | 53.67165 | 10.29180 | 5144 ft | 249 kts | 44° |
| 2026-04-23 19:45 | 53.68246 | 10.31377 | 5007 ft | 238 kts | 44° |
| 2026-04-23 19:45 | 53.69270 | 10.33467 | 4990 ft | 227 kts | 43° |
| 2026-04-23 19:45 | 53.70279 | 10.35507 | 4979 ft | 227 kts | 43° |
| 2026-04-23 19:45 | 53.71736 | 10.37962 | 4637 ft | 215 kts | 21° |
| 2026-04-23 19:46 | 53.72676 | 10.38443 | 4463 ft | 207 kts | 359° |
| 2026-04-23 19:46 | 53.74023 | 10.37877 | 4213 ft | 203 kts | 326° |
| 2026-04-23 19:46 | 53.74882 | 10.36043 | 4031 ft | 208 kts | 293° |
| 2026-04-23 19:46 | 53.74964 | 10.33536 | 3982 ft | 221 kts | 269° |
| 2026-04-23 19:47 | 53.74683 | 10.30996 | 3942 ft | 218 kts | 265° |
| 2026-04-23 19:47 | 53.74356 | 10.28509 | 3856 ft | 218 kts | 264° |
| 2026-04-23 19:47 | 53.74018 | 10.26019 | 3617 ft | 216 kts | 264° |
| 2026-04-23 19:47 | 53.73682 | 10.23548 | 3365 ft | 216 kts | 264° |
| 2026-04-23 19:48 | 53.73341 | 10.21082 | 3116 ft | 214 kts | 264° |
| 2026-04-23 19:48 | 53.72814 | 10.18728 | 2906 ft | 221 kts | 242° |
| 2026-04-23 19:48 | 53.71842 | 10.16682 | 2631 ft | 225 kts | 237° |
| 2026-04-23 19:48 | 53.70845 | 10.14689 | 2330 ft | 223 kts | 238° |
| 2026-04-23 19:49 | 53.69886 | 10.12758 | 2044 ft | 206 kts | 239° |
| 2026-04-23 19:49 | 53.69015 | 10.10992 | 1773 ft | 186 kts | 239° |
| 2026-04-23 19:49 | 53.68233 | 10.09403 | 1512 ft | 167 kts | 240° |
| 2026-04-23 19:49 | 53.67521 | 10.07949 | 1298 ft | 156 kts | 239° |
| 2026-04-23 19:50 | 53.66848 | 10.06576 | 1091 ft | 148 kts | 238° |
| 2026-04-23 19:50 | 53.66202 | 10.05259 | 891 ft | 144 kts | 238° |
| 2026-04-23 19:50 | 53.65576 | 10.03983 | 700 ft | 140 kts | 238° |
| 2026-04-23 19:50 | 53.64959 | 10.02734 | 495 ft | 138 kts | 238° |
| 2026-04-23 19:51 | 53.64358 | 10.01492 | 338 ft | 139 kts | 234° |
| 2026-04-23 19:51 | 53.63727 | 10.00243 | 125 ft | 140 kts | 236° |
| 2026-04-23 19:51 | 53.63132 | 9.99033 | 48 ft | 124 kts | 236° |
| 2026-04-23 19:51 | 53.62683 | 9.98106 | 42 ft | 77 kts | 230° |
| 2026-04-23 19:52 | 53.62487 | 9.97799 | 39 ft | 22 kts | 171° |
| 2026-04-23 19:52 | 53.62431 | 9.97944 | 46 ft | 13 kts | 79° |
| 2026-04-23 19:52 | 53.62464 | 9.98094 | 47 ft | 18 kts | 59° |
| 2026-04-23 19:52 | 53.62552 | 9.98275 | 47 ft | 20 kts | 51° |
| 2026-04-23 19:53 | 53.62635 | 9.98440 | 47 ft | 17 kts | 49° |
| 2026-04-23 19:53 | 53.62708 | 9.98587 | 47 ft | 16 kts | 48° |
| 2026-04-23 19:53 | 53.62774 | 9.98721 | 47 ft | 14 kts | 51° |
| 2026-04-23 19:53 | 53.62833 | 9.98843 | 47 ft | 13 kts | 50° |
| 2026-04-23 19:54 | 53.62888 | 9.98954 | 47 ft | 12 kts | 50° |
| 2026-04-23 19:54 | 53.62937 | 9.99050 | 47 ft | 10 kts | 49° |
| 2026-04-23 19:54 | 53.62981 | 9.99139 | 47 ft | 9 kts | 50° |
| 2026-04-23 19:54 | 53.63009 | 9.99197 | 47 ft | 0 kts | 50° |
| 2026-04-23 19:55 | 53.63015 | 9.99210 | 47 ft | 2 kts | 50° |
| 2026-04-23 19:55 | 53.63020 | 9.99220 | 47 ft | 2 kts | 51° |
| 2026-04-23 19:56 | 53.63051 | 9.99285 | 47 ft | 13 kts | 54° |
| 2026-04-23 19:56 | 53.63102 | 9.99405 | 46 ft | 12 kts | 54° |
| 2026-04-23 19:56 | 53.63150 | 9.99519 | 46 ft | 11 kts | 53° |
| 2026-04-23 19:56 | 53.63195 | 9.99617 | 47 ft | 9 kts | 51° |
| 2026-04-23 19:57 | 53.63208 | 9.99642 | 48 ft | 0 kts | 49° |
| 2026-04-23 19:57 | 53.63252 | 9.99725 | 48 ft | 16 kts | 48° |
| 2026-04-23 19:57 | 53.63265 | 9.99751 | 48 ft | 5 kts | 50° |
| 2026-04-23 19:58 | 53.63317 | 9.99844 | 48 ft | 17 kts | 47° |
| 2026-04-23 19:58 | 53.63408 | 10.00024 | 48 ft | 21 kts | 51° |
| 2026-04-23 19:58 | 53.63382 | 10.00184 | 48 ft | 9 kts | 178° |
| 2026-04-23 19:58 | 53.63297 | 10.00173 | 48 ft | 18 kts | 181° |
| 2026-04-23 19:59 | 53.63167 | 10.00195 | 46 ft | 17 kts | 143° |
| 2026-04-23 19:59 | 53.63167 | 10.00343 | 48 ft | 8 kts | 84° |
| 2026-04-23 19:59 | 53.63168 | 10.00364 | 48 ft | 0 kts | 87° |